sensor_id;sensor_type;location;lat;lon;timestamp;P1;durP1;ratioP1;P2;durP2;ratioP2
64851;SDS011;56050;55.558;-4.644;2022-08-16T00:00:06;10.25;;;5.20;;
64851;SDS011;56050;55.558;-4.644;2022-08-16T00:02:34;10.77;;;6.35;;
64851;SDS011;56050;55.558;-4.644;2022-08-16T00:05:00;9.68;;;5.32;;
64851;SDS011;56050;55.558;-4.644;2022-08-16T00:07:29;11.00;;;6.13;;
64851;SDS011;56050;55.558;-4.644;2022-08-16T00:09:55;9.73;;;5.15;;
64851;SDS011;56050;55.558;-4.644;2022-08-16T00:12:22;11.23;;;6.47;;
64851;SDS011;56050;55.558;-4.644;2022-08-16T00:14:48;9.35;;;5.45;;
64851;SDS011;56050;55.558;-4.644;2022-08-16T00:17:13;8.38;;;5.18;;
64851;SDS011;56050;55.558;-4.644;2022-08-16T00:19:39;8.77;;;5.70;;
64851;SDS011;56050;55.558;-4.644;2022-08-16T00:22:04;8.27;;;3.60;;
64851;SDS011;56050;55.558;-4.644;2022-08-16T00:24:29;8.18;;;3.78;;
64851;SDS011;56050;55.558;-4.644;2022-08-16T00:26:55;9.05;;;4.35;;
64851;SDS011;56050;55.558;-4.644;2022-08-16T00:29:21;10.43;;;4.32;;
64851;SDS011;56050;55.558;-4.644;2022-08-16T00:31:47;9.30;;;4.57;;
64851;SDS011;56050;55.558;-4.644;2022-08-16T00:34:15;8.23;;;4.45;;
64851;SDS011;56050;55.558;-4.644;2022-08-16T00:36:42;8.27;;;3.90;;
64851;SDS011;56050;55.558;-4.644;2022-08-16T00:39:10;7.30;;;4.72;;
64851;SDS011;56050;55.558;-4.644;2022-08-16T00:41:37;7.10;;;3.80;;
64851;SDS011;56050;55.558;-4.644;2022-08-16T00:44:03;9.23;;;4.20;;
64851;SDS011;56050;55.558;-4.644;2022-08-16T00:46:36;6.75;;;2.88;;
64851;SDS011;56050;55.558;-4.644;2022-08-16T00:49:20;7.60;;;3.22;;
64851;SDS011;56050;55.558;-4.644;2022-08-16T00:51:47;7.10;;;4.35;;
64851;SDS011;56050;55.558;-4.644;2022-08-16T00:54:13;6.40;;;3.47;;
64851;SDS011;56050;55.558;-4.644;2022-08-16T00:56:40;6.25;;;3.17;;
64851;SDS011;56050;55.558;-4.644;2022-08-16T00:59:08;9.48;;;3.45;;
64851;SDS011;56050;55.558;-4.644;2022-08-16T01:01:36;6.68;;;4.05;;
64851;SDS011;56050;55.558;-4.644;2022-08-16T01:04:02;8.85;;;4.25;;
64851;SDS011;56050;55.558;-4.644;2022-08-16T01:06:28;6.25;;;3.40;;
64851;SDS011;56050;55.558;-4.644;2022-08-16T01:08:54;7.53;;;3.72;;
64851;SDS011;56050;55.558;-4.644;2022-08-16T01:11:22;6.32;;;4.15;;
64851;SDS011;56050;55.558;-4.644;2022-08-16T01:13:49;5.85;;;3.58;;
64851;SDS011;56050;55.558;-4.644;2022-08-16T01:16:23;5.43;;;2.85;;
64851;SDS011;56050;55.558;-4.644;2022-08-16T01:18:52;5.80;;;3.50;;
64851;SDS011;56050;55.558;-4.644;2022-08-16T01:24:24;6.18;;;2.90;;
64851;SDS011;56050;55.558;-4.644;2022-08-16T01:26:54;7.28;;;3.05;;
64851;SDS011;56050;55.558;-4.644;2022-08-16T01:29:24;5.45;;;2.67;;
64851;SDS011;56050;55.558;-4.644;2022-08-16T01:31:55;7.70;;;4.22;;
64851;SDS011;56050;55.558;-4.644;2022-08-16T01:34:21;8.05;;;3.80;;
64851;SDS011;56050;55.558;-4.644;2022-08-16T01:36:46;7.68;;;3.97;;
64851;SDS011;56050;55.558;-4.644;2022-08-16T01:39:13;8.73;;;4.13;;
64851;SDS011;56050;55.558;-4.644;2022-08-16T01:41:40;8.80;;;4.75;;
64851;SDS011;56050;55.558;-4.644;2022-08-16T01:44:06;9.05;;;5.32;;
64851;SDS011;56050;55.558;-4.644;2022-08-16T01:49:02;13.95;;;6.15;;
64851;SDS011;56050;55.558;-4.644;2022-08-16T01:51:59;14.25;;;6.95;;
64851;SDS011;56050;55.558;-4.644;2022-08-16T01:54:27;13.70;;;7.80;;
64851;SDS011;56050;55.558;-4.644;2022-08-16T01:56:53;15.18;;;7.20;;
64851;SDS011;56050;55.558;-4.644;2022-08-16T01:59:22;12.60;;;5.85;;
64851;SDS011;56050;55.558;-4.644;2022-08-16T02:01:48;9.65;;;5.35;;
64851;SDS011;56050;55.558;-4.644;2022-08-16T02:04:17;7.22;;;4.07;;
64851;SDS011;56050;55.558;-4.644;2022-08-16T02:06:43;6.85;;;3.80;;
64851;SDS011;56050;55.558;-4.644;2022-08-16T02:09:09;6.07;;;3.03;;
64851;SDS011;56050;55.558;-4.644;2022-08-16T02:11:36;5.88;;;2.95;;
64851;SDS011;56050;55.558;-4.644;2022-08-16T02:14:03;6.55;;;2.55;;
64851;SDS011;56050;55.558;-4.644;2022-08-16T02:16:30;4.65;;;2.25;;
64851;SDS011;56050;55.558;-4.644;2022-08-16T02:18:55;5.50;;;2.75;;
64851;SDS011;56050;55.558;-4.644;2022-08-16T02:21:21;6.53;;;3.25;;
64851;SDS011;56050;55.558;-4.644;2022-08-16T02:23:46;4.35;;;2.22;;
64851;SDS011;56050;55.558;-4.644;2022-08-16T02:26:12;3.78;;;1.52;;
64851;SDS011;56050;55.558;-4.644;2022-08-16T02:28:39;3.92;;;1.65;;
64851;SDS011;56050;55.558;-4.644;2022-08-16T02:31:06;2.88;;;1.33;;
64851;SDS011;56050;55.558;-4.644;2022-08-16T02:33:34;3.67;;;1.40;;
64851;SDS011;56050;55.558;-4.644;2022-08-16T02:36:00;4.43;;;1.40;;
64851;SDS011;56050;55.558;-4.644;2022-08-16T02:38:26;2.75;;;0.98;;
64851;SDS011;56050;55.558;-4.644;2022-08-16T02:40:55;2.33;;;0.85;;
64851;SDS011;56050;55.558;-4.644;2022-08-16T02:43:23;3.40;;;1.33;;
64851;SDS011;56050;55.558;-4.644;2022-08-16T02:45:49;2.42;;;0.70;;
64851;SDS011;56050;55.558;-4.644;2022-08-16T02:48:14;3.03;;;1.17;;
64851;SDS011;56050;55.558;-4.644;2022-08-16T02:50:40;2.88;;;1.15;;
64851;SDS011;56050;55.558;-4.644;2022-08-16T02:53:06;3.38;;;1.73;;
64851;SDS011;56050;55.558;-4.644;2022-08-16T02:55:31;3.92;;;1.52;;
64851;SDS011;56050;55.558;-4.644;2022-08-16T02:57:57;3.10;;;1.67;;
64851;SDS011;56050;55.558;-4.644;2022-08-16T03:00:23;3.53;;;2.90;;
64851;SDS011;56050;55.558;-4.644;2022-08-16T03:02:49;3.22;;;1.92;;
64851;SDS011;56050;55.558;-4.644;2022-08-16T03:05:18;3.50;;;1.25;;
64851;SDS011;56050;55.558;-4.644;2022-08-16T03:07:43;3.65;;;1.27;;
64851;SDS011;56050;55.558;-4.644;2022-08-16T03:10:09;3.60;;;1.38;;
64851;SDS011;56050;55.558;-4.644;2022-08-16T03:12:36;4.55;;;1.30;;
64851;SDS011;56050;55.558;-4.644;2022-08-16T03:15:03;3.53;;;1.80;;
64851;SDS011;56050;55.558;-4.644;2022-08-16T03:17:29;4.05;;;1.63;;
64851;SDS011;56050;55.558;-4.644;2022-08-16T03:19:55;4.22;;;1.58;;
64851;SDS011;56050;55.558;-4.644;2022-08-16T03:22:20;4.28;;;1.65;;
64851;SDS011;56050;55.558;-4.644;2022-08-16T03:24:46;3.70;;;1.50;;
64851;SDS011;56050;55.558;-4.644;2022-08-16T03:27:12;4.03;;;1.92;;
64851;SDS011;56050;55.558;-4.644;2022-08-16T03:29:37;4.30;;;1.80;;
64851;SDS011;56050;55.558;-4.644;2022-08-16T03:32:03;4.82;;;2.30;;
64851;SDS011;56050;55.558;-4.644;2022-08-16T03:34:29;5.88;;;2.00;;
64851;SDS011;56050;55.558;-4.644;2022-08-16T03:36:57;4.85;;;2.30;;
64851;SDS011;56050;55.558;-4.644;2022-08-16T03:39:24;4.70;;;2.35;;
64851;SDS011;56050;55.558;-4.644;2022-08-16T03:41:50;7.35;;;1.80;;
64851;SDS011;56050;55.558;-4.644;2022-08-16T03:44:16;4.20;;;1.85;;
64851;SDS011;56050;55.558;-4.644;2022-08-16T03:46:42;4.88;;;1.63;;
64851;SDS011;56050;55.558;-4.644;2022-08-16T03:49:07;3.38;;;1.63;;
64851;SDS011;56050;55.558;-4.644;2022-08-16T03:51:35;4.93;;;1.90;;
64851;SDS011;56050;55.558;-4.644;2022-08-16T03:54:01;4.75;;;2.17;;
64851;SDS011;56050;55.558;-4.644;2022-08-16T03:56:28;4.88;;;2.15;;
64851;SDS011;56050;55.558;-4.644;2022-08-16T03:58:53;4.72;;;1.65;;
64851;SDS011;56050;55.558;-4.644;2022-08-16T04:01:20;4.88;;;1.77;;
64851;SDS011;56050;55.558;-4.644;2022-08-16T04:03:47;3.88;;;2.60;;
64851;SDS011;56050;55.558;-4.644;2022-08-16T04:06:12;6.15;;;3.03;;
64851;SDS011;56050;55.558;-4.644;2022-08-16T04:08:38;4.40;;;1.95;;
64851;SDS011;56050;55.558;-4.644;2022-08-16T04:11:03;5.77;;;2.03;;
64851;SDS011;56050;55.558;-4.644;2022-08-16T04:13:29;4.75;;;1.90;;
64851;SDS011;56050;55.558;-4.644;2022-08-16T04:15:55;4.97;;;2.35;;
64851;SDS011;56050;55.558;-4.644;2022-08-16T04:18:23;4.72;;;1.98;;
64851;SDS011;56050;55.558;-4.644;2022-08-16T04:20:52;5.07;;;2.47;;
64851;SDS011;56050;55.558;-4.644;2022-08-16T04:23:18;5.22;;;2.65;;
64851;SDS011;56050;55.558;-4.644;2022-08-16T04:25:43;4.35;;;2.03;;
64851;SDS011;56050;55.558;-4.644;2022-08-16T04:28:09;4.55;;;2.38;;
64851;SDS011;56050;55.558;-4.644;2022-08-16T04:30:35;4.30;;;2.00;;
64851;SDS011;56050;55.558;-4.644;2022-08-16T04:33:00;4.80;;;2.45;;
64851;SDS011;56050;55.558;-4.644;2022-08-16T04:35:26;3.97;;;1.65;;
64851;SDS011;56050;55.558;-4.644;2022-08-16T04:37:52;5.00;;;2.38;;
64851;SDS011;56050;55.558;-4.644;2022-08-16T04:40:18;3.97;;;1.98;;
64851;SDS011;56050;55.558;-4.644;2022-08-16T04:42:46;3.75;;;1.63;;
64851;SDS011;56050;55.558;-4.644;2022-08-16T04:45:12;4.45;;;2.22;;
64851;SDS011;56050;55.558;-4.644;2022-08-16T04:47:39;4.47;;;1.95;;
64851;SDS011;56050;55.558;-4.644;2022-08-16T04:50:06;4.30;;;2.58;;
64851;SDS011;56050;55.558;-4.644;2022-08-16T04:52:36;5.63;;;4.00;;
64851;SDS011;56050;55.558;-4.644;2022-08-16T04:55:04;5.10;;;2.15;;
64851;SDS011;56050;55.558;-4.644;2022-08-16T04:57:43;6.05;;;2.33;;
64851;SDS011;56050;55.558;-4.644;2022-08-16T05:00:20;7.35;;;2.35;;
64851;SDS011;56050;55.558;-4.644;2022-08-16T05:02:48;4.88;;;2.25;;
64851;SDS011;56050;55.558;-4.644;2022-08-16T05:05:15;7.05;;;1.95;;
64851;SDS011;56050;55.558;-4.644;2022-08-16T05:07:40;4.38;;;1.77;;
64851;SDS011;56050;55.558;-4.644;2022-08-16T05:10:06;5.30;;;2.42;;
64851;SDS011;56050;55.558;-4.644;2022-08-16T05:12:33;4.70;;;2.40;;
64851;SDS011;56050;55.558;-4.644;2022-08-16T05:14:59;5.07;;;1.95;;
64851;SDS011;56050;55.558;-4.644;2022-08-16T05:17:25;6.75;;;3.78;;
64851;SDS011;56050;55.558;-4.644;2022-08-16T05:19:50;4.70;;;2.05;;
64851;SDS011;56050;55.558;-4.644;2022-08-16T05:22:16;7.00;;;3.55;;
64851;SDS011;56050;55.558;-4.644;2022-08-16T05:24:42;6.82;;;2.15;;
64851;SDS011;56050;55.558;-4.644;2022-08-16T05:27:08;5.90;;;2.65;;
64851;SDS011;56050;55.558;-4.644;2022-08-16T05:29:34;3.90;;;1.50;;
64851;SDS011;56050;55.558;-4.644;2022-08-16T05:32:00;5.03;;;2.22;;
64851;SDS011;56050;55.558;-4.644;2022-08-16T05:34:26;3.53;;;1.70;;
64851;SDS011;56050;55.558;-4.644;2022-08-16T05:36:52;3.42;;;1.50;;
64851;SDS011;56050;55.558;-4.644;2022-08-16T05:39:21;3.85;;;1.35;;
64851;SDS011;56050;55.558;-4.644;2022-08-16T05:41:47;4.15;;;2.90;;
64851;SDS011;56050;55.558;-4.644;2022-08-16T05:44:14;4.25;;;1.67;;
64851;SDS011;56050;55.558;-4.644;2022-08-16T05:46:40;3.90;;;1.77;;
64851;SDS011;56050;55.558;-4.644;2022-08-16T05:49:06;4.65;;;1.90;;
64851;SDS011;56050;55.558;-4.644;2022-08-16T05:51:32;3.17;;;1.25;;
64851;SDS011;56050;55.558;-4.644;2022-08-16T05:53:57;3.75;;;2.00;;
64851;SDS011;56050;55.558;-4.644;2022-08-16T05:56:23;4.53;;;1.92;;
64851;SDS011;56050;55.558;-4.644;2022-08-16T05:58:48;5.13;;;2.42;;
64851;SDS011;56050;55.558;-4.644;2022-08-16T06:01:14;5.13;;;2.40;;
64851;SDS011;56050;55.558;-4.644;2022-08-16T06:03:39;5.22;;;2.25;;
64851;SDS011;56050;55.558;-4.644;2022-08-16T06:06:05;5.25;;;1.63;;
64851;SDS011;56050;55.558;-4.644;2022-08-16T06:08:30;4.68;;;2.00;;
64851;SDS011;56050;55.558;-4.644;2022-08-16T06:10:56;5.78;;;2.00;;
64851;SDS011;56050;55.558;-4.644;2022-08-16T06:13:21;5.07;;;1.63;;
64851;SDS011;56050;55.558;-4.644;2022-08-16T06:15:46;5.18;;;1.85;;
64851;SDS011;56050;55.558;-4.644;2022-08-16T06:18:16;6.75;;;2.00;;
64851;SDS011;56050;55.558;-4.644;2022-08-16T06:20:42;6.35;;;2.15;;
64851;SDS011;56050;55.558;-4.644;2022-08-16T06:23:07;8.48;;;1.63;;
64851;SDS011;56050;55.558;-4.644;2022-08-16T06:25:33;4.53;;;1.75;;
64851;SDS011;56050;55.558;-4.644;2022-08-16T06:27:58;4.18;;;1.83;;
64851;SDS011;56050;55.558;-4.644;2022-08-16T06:30:24;4.10;;;1.60;;
64851;SDS011;56050;55.558;-4.644;2022-08-16T06:32:49;5.38;;;3.10;;
64851;SDS011;56050;55.558;-4.644;2022-08-16T06:35:15;4.60;;;3.53;;
64851;SDS011;56050;55.558;-4.644;2022-08-16T06:37:41;4.20;;;2.08;;
64851;SDS011;56050;55.558;-4.644;2022-08-16T06:40:07;4.32;;;1.60;;
64851;SDS011;56050;55.558;-4.644;2022-08-16T06:42:34;4.15;;;2.05;;
64851;SDS011;56050;55.558;-4.644;2022-08-16T06:44:59;5.20;;;1.90;;
64851;SDS011;56050;55.558;-4.644;2022-08-16T06:47:24;4.15;;;2.33;;
64851;SDS011;56050;55.558;-4.644;2022-08-16T06:49:50;4.00;;;1.70;;
64851;SDS011;56050;55.558;-4.644;2022-08-16T06:52:15;4.82;;;2.15;;
64851;SDS011;56050;55.558;-4.644;2022-08-16T06:54:41;5.38;;;2.35;;
64851;SDS011;56050;55.558;-4.644;2022-08-16T06:57:06;5.50;;;1.80;;
64851;SDS011;56050;55.558;-4.644;2022-08-16T06:59:34;7.47;;;2.70;;
64851;SDS011;56050;55.558;-4.644;2022-08-16T07:02:00;7.43;;;2.15;;
64851;SDS011;56050;55.558;-4.644;2022-08-16T07:04:25;5.90;;;1.77;;
64851;SDS011;56050;55.558;-4.644;2022-08-16T07:06:52;8.00;;;2.78;;
64851;SDS011;56050;55.558;-4.644;2022-08-16T07:09:18;4.70;;;2.00;;
64851;SDS011;56050;55.558;-4.644;2022-08-16T07:11:43;5.28;;;3.22;;
64851;SDS011;56050;55.558;-4.644;2022-08-16T07:14:09;5.25;;;1.60;;
64851;SDS011;56050;55.558;-4.644;2022-08-16T07:16:35;4.80;;;2.50;;
64851;SDS011;56050;55.558;-4.644;2022-08-16T07:19:00;6.32;;;2.40;;
64851;SDS011;56050;55.558;-4.644;2022-08-16T07:21:26;6.93;;;1.70;;
64851;SDS011;56050;55.558;-4.644;2022-08-16T07:23:52;4.07;;;2.00;;
64851;SDS011;56050;55.558;-4.644;2022-08-16T07:26:19;3.97;;;1.85;;
64851;SDS011;56050;55.558;-4.644;2022-08-16T07:28:47;5.22;;;3.53;;
64851;SDS011;56050;55.558;-4.644;2022-08-16T07:31:13;5.07;;;2.17;;
64851;SDS011;56050;55.558;-4.644;2022-08-16T07:33:39;4.55;;;1.90;;
64851;SDS011;56050;55.558;-4.644;2022-08-16T07:36:06;6.22;;;2.33;;
64851;SDS011;56050;55.558;-4.644;2022-08-16T07:38:33;3.50;;;1.65;;
64851;SDS011;56050;55.558;-4.644;2022-08-16T07:40:59;5.63;;;2.47;;
64851;SDS011;56050;55.558;-4.644;2022-08-16T07:43:25;4.35;;;1.70;;
64851;SDS011;56050;55.558;-4.644;2022-08-16T07:45:50;4.20;;;1.60;;
64851;SDS011;56050;55.558;-4.644;2022-08-16T07:48:16;4.45;;;1.60;;
64851;SDS011;56050;55.558;-4.644;2022-08-16T07:50:42;4.55;;;2.08;;
64851;SDS011;56050;55.558;-4.644;2022-08-16T07:53:09;4.53;;;2.50;;
64851;SDS011;56050;55.558;-4.644;2022-08-16T07:55:35;5.22;;;2.45;;
64851;SDS011;56050;55.558;-4.644;2022-08-16T07:58:01;4.90;;;1.65;;
64851;SDS011;56050;55.558;-4.644;2022-08-16T08:00:27;3.80;;;1.85;;
64851;SDS011;56050;55.558;-4.644;2022-08-16T08:02:53;4.50;;;2.10;;
64851;SDS011;56050;55.558;-4.644;2022-08-16T08:05:19;5.53;;;1.85;;
64851;SDS011;56050;55.558;-4.644;2022-08-16T08:07:47;4.25;;;1.90;;
64851;SDS011;56050;55.558;-4.644;2022-08-16T08:10:13;5.63;;;2.35;;
64851;SDS011;56050;55.558;-4.644;2022-08-16T08:12:39;3.55;;;1.52;;
64851;SDS011;56050;55.558;-4.644;2022-08-16T08:15:05;5.07;;;1.92;;
64851;SDS011;56050;55.558;-4.644;2022-08-16T08:17:33;5.50;;;2.33;;
64851;SDS011;56050;55.558;-4.644;2022-08-16T08:19:58;6.13;;;1.42;;
64851;SDS011;56050;55.558;-4.644;2022-08-16T08:22:23;7.10;;;2.30;;
64851;SDS011;56050;55.558;-4.644;2022-08-16T08:24:49;4.40;;;1.50;;
64851;SDS011;56050;55.558;-4.644;2022-08-16T08:27:15;5.07;;;1.55;;
64851;SDS011;56050;55.558;-4.644;2022-08-16T08:29:41;4.72;;;1.70;;
64851;SDS011;56050;55.558;-4.644;2022-08-16T08:32:07;4.28;;;1.20;;
64851;SDS011;56050;55.558;-4.644;2022-08-16T08:34:34;5.43;;;1.80;;
64851;SDS011;56050;55.558;-4.644;2022-08-16T08:36:59;5.65;;;1.73;;
64851;SDS011;56050;55.558;-4.644;2022-08-16T08:39:25;4.28;;;1.90;;
64851;SDS011;56050;55.558;-4.644;2022-08-16T08:41:50;5.57;;;1.58;;
64851;SDS011;56050;55.558;-4.644;2022-08-16T08:44:16;7.10;;;2.25;;
64851;SDS011;56050;55.558;-4.644;2022-08-16T08:46:42;4.00;;;1.30;;
64851;SDS011;56050;55.558;-4.644;2022-08-16T08:49:08;3.25;;;2.17;;
64851;SDS011;56050;55.558;-4.644;2022-08-16T08:51:33;3.30;;;1.08;;
64851;SDS011;56050;55.558;-4.644;2022-08-16T08:53:59;2.28;;;0.70;;
64851;SDS011;56050;55.558;-4.644;2022-08-16T08:56:25;2.97;;;0.57;;
64851;SDS011;56050;55.558;-4.644;2022-08-16T08:58:51;3.17;;;0.75;;
64851;SDS011;56050;55.558;-4.644;2022-08-16T09:01:21;3.60;;;0.73;;
64851;SDS011;56050;55.558;-4.644;2022-08-16T09:03:53;4.50;;;0.80;;
64851;SDS011;56050;55.558;-4.644;2022-08-16T09:06:19;2.47;;;0.60;;
64851;SDS011;56050;55.558;-4.644;2022-08-16T09:08:44;56.00;;;8.70;;
64851;SDS011;56050;55.558;-4.644;2022-08-16T09:11:10;2.05;;;0.85;;
64851;SDS011;56050;55.558;-4.644;2022-08-16T09:13:35;2.42;;;0.80;;
64851;SDS011;56050;55.558;-4.644;2022-08-16T09:16:01;4.28;;;0.77;;
64851;SDS011;56050;55.558;-4.644;2022-08-16T09:18:27;4.28;;;1.13;;
64851;SDS011;56050;55.558;-4.644;2022-08-16T09:20:54;3.92;;;1.83;;
64851;SDS011;56050;55.558;-4.644;2022-08-16T09:23:20;10.20;;;2.17;;
64851;SDS011;56050;55.558;-4.644;2022-08-16T09:25:46;7.97;;;2.63;;
64851;SDS011;56050;55.558;-4.644;2022-08-16T09:28:12;5.82;;;2.45;;
64851;SDS011;56050;55.558;-4.644;2022-08-16T09:30:38;5.35;;;2.00;;
64851;SDS011;56050;55.558;-4.644;2022-08-16T09:33:04;40.33;;;6.97;;
64851;SDS011;56050;55.558;-4.644;2022-08-16T09:35:31;3.33;;;1.17;;
64851;SDS011;56050;55.558;-4.644;2022-08-16T09:37:57;2.28;;;0.73;;
64851;SDS011;56050;55.558;-4.644;2022-08-16T09:40:22;10.10;;;1.50;;
64851;SDS011;56050;55.558;-4.644;2022-08-16T09:42:48;4.63;;;1.33;;
64851;SDS011;56050;55.558;-4.644;2022-08-16T09:45:13;1.60;;;0.40;;
64851;SDS011;56050;55.558;-4.644;2022-08-16T09:47:40;2.08;;;1.50;;
64851;SDS011;56050;55.558;-4.644;2022-08-16T09:50:06;1.20;;;0.77;;
64851;SDS011;56050;55.558;-4.644;2022-08-16T09:52:33;1.23;;;0.60;;
64851;SDS011;56050;55.558;-4.644;2022-08-16T09:55:02;1.33;;;0.50;;
64851;SDS011;56050;55.558;-4.644;2022-08-16T09:57:29;2.83;;;0.70;;
64851;SDS011;56050;55.558;-4.644;2022-08-16T09:59:55;1.35;;;0.65;;
64851;SDS011;56050;55.558;-4.644;2022-08-16T10:02:21;2.28;;;0.40;;
64851;SDS011;56050;55.558;-4.644;2022-08-16T10:04:48;0.88;;;0.47;;
64851;SDS011;56050;55.558;-4.644;2022-08-16T10:07:14;1.52;;;1.42;;
64851;SDS011;56050;55.558;-4.644;2022-08-16T10:09:39;3.55;;;0.47;;
64851;SDS011;56050;55.558;-4.644;2022-08-16T10:12:04;1.90;;;0.45;;
64851;SDS011;56050;55.558;-4.644;2022-08-16T10:14:48;3.95;;;1.80;;
64851;SDS011;56050;55.558;-4.644;2022-08-16T10:17:14;1.48;;;0.17;;
64851;SDS011;56050;55.558;-4.644;2022-08-16T10:19:40;1.80;;;0.50;;
64851;SDS011;56050;55.558;-4.644;2022-08-16T10:22:05;0.63;;;0.35;;
64851;SDS011;56050;55.558;-4.644;2022-08-16T10:24:32;0.50;;;0.30;;
64851;SDS011;56050;55.558;-4.644;2022-08-16T10:26:58;0.98;;;0.38;;
64851;SDS011;56050;55.558;-4.644;2022-08-16T10:29:23;0.77;;;0.77;;
64851;SDS011;56050;55.558;-4.644;2022-08-16T10:31:49;0.57;;;0.32;;
64851;SDS011;56050;55.558;-4.644;2022-08-16T10:34:14;1.23;;;1.17;;
64851;SDS011;56050;55.558;-4.644;2022-08-16T10:36:39;0.60;;;0.20;;
64851;SDS011;56050;55.558;-4.644;2022-08-16T10:39:05;0.63;;;0.25;;
64851;SDS011;56050;55.558;-4.644;2022-08-16T10:41:31;1.50;;;0.22;;
64851;SDS011;56050;55.558;-4.644;2022-08-16T10:43:57;1.00;;;0.43;;
64851;SDS011;56050;55.558;-4.644;2022-08-16T10:46:23;0.40;;;0.30;;
64851;SDS011;56050;55.558;-4.644;2022-08-16T10:48:49;1.98;;;0.57;;
64851;SDS011;56050;55.558;-4.644;2022-08-16T10:51:16;1.20;;;0.70;;
64851;SDS011;56050;55.558;-4.644;2022-08-16T10:53:42;0.63;;;0.45;;
64851;SDS011;56050;55.558;-4.644;2022-08-16T10:56:08;1.15;;;0.28;;
64851;SDS011;56050;55.558;-4.644;2022-08-16T10:58:36;0.43;;;0.35;;
64851;SDS011;56050;55.558;-4.644;2022-08-16T11:01:04;1.50;;;0.50;;
64851;SDS011;56050;55.558;-4.644;2022-08-16T11:03:32;1.80;;;0.50;;
64851;SDS011;56050;55.558;-4.644;2022-08-16T11:05:58;1.77;;;0.30;;
64851;SDS011;56050;55.558;-4.644;2022-08-16T11:08:24;0.40;;;0.22;;
64851;SDS011;56050;55.558;-4.644;2022-08-16T11:10:50;1.95;;;0.20;;
64851;SDS011;56050;55.558;-4.644;2022-08-16T11:13:20;3.42;;;0.73;;
64851;SDS011;56050;55.558;-4.644;2022-08-16T11:15:47;2.67;;;0.30;;
64851;SDS011;56050;55.558;-4.644;2022-08-16T11:18:13;0.90;;;0.40;;
64851;SDS011;56050;55.558;-4.644;2022-08-16T11:20:39;1.00;;;0.95;;
64851;SDS011;56050;55.558;-4.644;2022-08-16T11:23:08;0.43;;;0.30;;
64851;SDS011;56050;55.558;-4.644;2022-08-16T11:25:36;1.15;;;1.05;;
64851;SDS011;56050;55.558;-4.644;2022-08-16T11:28:02;0.70;;;0.55;;
64851;SDS011;56050;55.558;-4.644;2022-08-16T11:30:29;1.17;;;0.40;;
64851;SDS011;56050;55.558;-4.644;2022-08-16T11:32:55;0.65;;;0.63;;
64851;SDS011;56050;55.558;-4.644;2022-08-16T11:35:22;0.30;;;0.30;;
64851;SDS011;56050;55.558;-4.644;2022-08-16T11:37:51;0.93;;;0.30;;
64851;SDS011;56050;55.558;-4.644;2022-08-16T11:40:21;0.30;;;0.30;;
64851;SDS011;56050;55.558;-4.644;2022-08-16T11:42:48;0.63;;;0.43;;
64851;SDS011;56050;55.558;-4.644;2022-08-16T11:45:13;0.63;;;0.20;;
64851;SDS011;56050;55.558;-4.644;2022-08-16T11:47:39;0.50;;;0.32;;
64851;SDS011;56050;55.558;-4.644;2022-08-16T11:50:05;1.60;;;1.05;;
64851;SDS011;56050;55.558;-4.644;2022-08-16T11:52:33;0.40;;;0.30;;
64851;SDS011;56050;55.558;-4.644;2022-08-16T11:54:59;0.43;;;0.22;;
64851;SDS011;56050;55.558;-4.644;2022-08-16T11:57:25;0.22;;;0.22;;
64851;SDS011;56050;55.558;-4.644;2022-08-16T11:59:50;0.57;;;0.30;;
64851;SDS011;56050;55.558;-4.644;2022-08-16T12:02:15;0.52;;;0.52;;
64851;SDS011;56050;55.558;-4.644;2022-08-16T12:04:41;1.88;;;0.90;;
64851;SDS011;56050;55.558;-4.644;2022-08-16T12:07:08;1.55;;;0.50;;
64851;SDS011;56050;55.558;-4.644;2022-08-16T12:09:34;0.82;;;0.40;;
64851;SDS011;56050;55.558;-4.644;2022-08-16T12:12:00;2.15;;;0.47;;
64851;SDS011;56050;55.558;-4.644;2022-08-16T12:14:25;0.85;;;0.32;;
64851;SDS011;56050;55.558;-4.644;2022-08-16T12:16:51;2.42;;;0.32;;
64851;SDS011;56050;55.558;-4.644;2022-08-16T12:19:20;1.20;;;0.60;;
64851;SDS011;56050;55.558;-4.644;2022-08-16T12:21:45;1.10;;;0.35;;
64851;SDS011;56050;55.558;-4.644;2022-08-16T12:24:12;1.40;;;0.22;;
64851;SDS011;56050;55.558;-4.644;2022-08-16T12:26:37;1.30;;;0.45;;
64851;SDS011;56050;55.558;-4.644;2022-08-16T12:29:03;0.30;;;0.25;;
64851;SDS011;56050;55.558;-4.644;2022-08-16T12:31:28;0.73;;;0.45;;
64851;SDS011;56050;55.558;-4.644;2022-08-16T12:33:54;0.75;;;0.40;;
64851;SDS011;56050;55.558;-4.644;2022-08-16T12:36:19;1.40;;;0.63;;
64851;SDS011;56050;55.558;-4.644;2022-08-16T12:38:45;0.73;;;0.73;;
64851;SDS011;56050;55.558;-4.644;2022-08-16T12:41:11;2.17;;;0.63;;
64851;SDS011;56050;55.558;-4.644;2022-08-16T12:43:38;0.70;;;0.55;;
64851;SDS011;56050;55.558;-4.644;2022-08-16T12:46:05;0.65;;;0.50;;
64851;SDS011;56050;55.558;-4.644;2022-08-16T12:48:32;1.75;;;0.40;;
64851;SDS011;56050;55.558;-4.644;2022-08-16T12:51:18;0.80;;;0.38;;
64851;SDS011;56050;55.558;-4.644;2022-08-16T12:53:49;0.63;;;0.52;;
64851;SDS011;56050;55.558;-4.644;2022-08-16T12:56:17;0.98;;;0.70;;
64851;SDS011;56050;55.558;-4.644;2022-08-16T12:58:44;2.38;;;0.65;;
64851;SDS011;56050;55.558;-4.644;2022-08-16T13:01:15;2.17;;;0.47;;
64851;SDS011;56050;55.558;-4.644;2022-08-16T13:03:49;2.13;;;0.68;;
64851;SDS011;56050;55.558;-4.644;2022-08-16T13:06:15;1.73;;;1.55;;
64851;SDS011;56050;55.558;-4.644;2022-08-16T13:08:41;0.40;;;0.20;;
64851;SDS011;56050;55.558;-4.644;2022-08-16T13:11:08;0.60;;;0.45;;
64851;SDS011;56050;55.558;-4.644;2022-08-16T13:13:34;1.48;;;0.40;;
64851;SDS011;56050;55.558;-4.644;2022-08-16T13:16:00;1.02;;;0.55;;
64851;SDS011;56050;55.558;-4.644;2022-08-16T13:18:27;0.80;;;0.40;;
64851;SDS011;56050;55.558;-4.644;2022-08-16T13:20:54;1.05;;;0.55;;
64851;SDS011;56050;55.558;-4.644;2022-08-16T13:23:21;2.03;;;0.60;;
64851;SDS011;56050;55.558;-4.644;2022-08-16T13:25:47;0.93;;;0.55;;
64851;SDS011;56050;55.558;-4.644;2022-08-16T13:28:14;1.05;;;1.00;;
64851;SDS011;56050;55.558;-4.644;2022-08-16T13:30:42;2.92;;;0.93;;
64851;SDS011;56050;55.558;-4.644;2022-08-16T13:33:14;1.48;;;0.43;;
64851;SDS011;56050;55.558;-4.644;2022-08-16T13:35:42;1.90;;;0.70;;
64851;SDS011;56050;55.558;-4.644;2022-08-16T13:38:10;7.53;;;0.95;;
64851;SDS011;56050;55.558;-4.644;2022-08-16T13:40:37;1.75;;;0.35;;
64851;SDS011;56050;55.558;-4.644;2022-08-16T13:43:02;1.10;;;0.70;;
64851;SDS011;56050;55.558;-4.644;2022-08-16T13:45:28;0.50;;;0.50;;
64851;SDS011;56050;55.558;-4.644;2022-08-16T13:47:53;0.55;;;0.52;;
64851;SDS011;56050;55.558;-4.644;2022-08-16T13:50:19;0.95;;;0.52;;
64851;SDS011;56050;55.558;-4.644;2022-08-16T13:52:45;1.08;;;0.45;;
64851;SDS011;56050;55.558;-4.644;2022-08-16T13:55:11;0.95;;;0.82;;
64851;SDS011;56050;55.558;-4.644;2022-08-16T13:57:37;1.15;;;1.02;;
64851;SDS011;56050;55.558;-4.644;2022-08-16T14:00:03;0.60;;;0.35;;
64851;SDS011;56050;55.558;-4.644;2022-08-16T14:02:32;2.15;;;0.73;;
64851;SDS011;56050;55.558;-4.644;2022-08-16T14:04:58;1.53;;;0.40;;
64851;SDS011;56050;55.558;-4.644;2022-08-16T14:07:23;0.95;;;0.32;;
64851;SDS011;56050;55.558;-4.644;2022-08-16T14:09:48;0.60;;;0.43;;
64851;SDS011;56050;55.558;-4.644;2022-08-16T14:12:24;1.25;;;1.25;;
64851;SDS011;56050;55.558;-4.644;2022-08-16T14:14:54;0.50;;;0.35;;
64851;SDS011;56050;55.558;-4.644;2022-08-16T14:17:20;0.95;;;0.32;;
64851;SDS011;56050;55.558;-4.644;2022-08-16T14:19:47;1.20;;;0.32;;
64851;SDS011;56050;55.558;-4.644;2022-08-16T14:22:15;0.80;;;0.60;;
64851;SDS011;56050;55.558;-4.644;2022-08-16T14:24:48;0.80;;;0.63;;
64851;SDS011;56050;55.558;-4.644;2022-08-16T14:27:15;1.55;;;0.47;;
64851;SDS011;56050;55.558;-4.644;2022-08-16T14:29:45;1.05;;;0.55;;
64851;SDS011;56050;55.558;-4.644;2022-08-16T14:32:11;0.68;;;0.55;;
64851;SDS011;56050;55.558;-4.644;2022-08-16T14:34:36;1.83;;;0.28;;